Newtown, Connecticut
Current Conditions -  °F | °C
As of 6:53 AM on Monday 26 Jan 2015 (Local Time) from KDXR Reporting Station
Overcast Overcast  
Wind Chill:   Ceiling: 5000
Heat Index: 18°   Visibility: 10mi
Dew Point:   Wind: 8mph
Humidity: 50%   Direction: 50°NE
Pressure: 30.03"   Gusts: NA
Location:  41.41°N, 73.3°W
Report Text: KDXR 261153Z 05007KT 10SM FEW044 OVC050 M08/M17 A3003 RMK AO2 SLP174 T10781167 11072 21078 55003
Loading
Personal Weather Stations






























Interactive Weather Map New forecast layout! Learn more

10-Day Weather Forecast

Advertisements
Track Severe Weather on mobile